createdAt,value
2022-12-29T00:02:16.391Z,11.30
2022-12-29T00:04:43.746Z,11.30
2022-12-29T00:07:11.283Z,11.20
2022-12-29T00:09:38.709Z,11.20
2022-12-29T00:12:06.361Z,11.20
2022-12-29T00:14:51.802Z,11.20
2022-12-29T00:17:19.667Z,11.20
2022-12-29T00:20:04.895Z,11.10
2022-12-29T00:22:50.737Z,11.00
2022-12-29T00:25:36.889Z,11.10
2022-12-29T00:28:22.543Z,11.00
2022-12-29T00:31:08.381Z,11.00
2022-12-29T00:33:54.204Z,11.00
2022-12-29T00:36:32.560Z,11.00
2022-12-29T00:39:38.113Z,10.90
2022-12-29T00:42:25.558Z,10.90
2022-12-29T00:44:52.536Z,10.80
2022-12-29T00:47:19.500Z,10.80
2022-12-29T00:49:46.539Z,10.80
2022-12-29T00:52:14.313Z,10.80
2022-12-29T00:54:42.199Z,10.80
2022-12-29T00:57:10.755Z,10.80
2022-12-29T00:59:39.203Z,10.80
2022-12-29T01:02:06.861Z,10.70
2022-12-29T01:04:34.514Z,10.70
2022-12-29T01:07:01.464Z,10.80
2022-12-29T01:09:46.880Z,10.70
2022-12-29T01:12:16.478Z,10.80
2022-12-29T01:14:45.369Z,10.80
2022-12-29T01:17:12.372Z,10.80
2022-12-29T01:19:40.311Z,10.90
2022-12-29T01:22:07.379Z,10.90
2022-12-29T01:24:34.328Z,11.00
2022-12-29T01:27:01.259Z,11.10
2022-12-29T01:29:28.204Z,11.10
2022-12-29T01:31:55.289Z,11.10
2022-12-29T01:34:23.489Z,11.20
2022-12-29T01:36:50.546Z,11.30
2022-12-29T01:39:17.783Z,11.40
2022-12-29T01:41:44.839Z,11.30
2022-12-29T01:44:50.385Z,11.30
2022-12-29T01:47:31.316Z,11.30
2022-12-29T01:50:01.842Z,11.50
2022-12-29T01:52:33.068Z,11.50
2022-12-29T01:55:00.997Z,11.50
2022-12-29T01:57:32.489Z,11.40
2022-12-29T02:00:14.782Z,11.50
2022-12-29T02:02:54.303Z,11.50
2022-12-29T02:05:28.233Z,11.60
2022-12-29T02:07:55.378Z,11.60
2022-12-29T02:10:24.468Z,11.60
2022-12-29T02:12:52.582Z,11.70
2022-12-29T02:15:24.731Z,11.60
2022-12-29T02:18:08.784Z,11.60
2022-12-29T02:21:03.412Z,11.50
2022-12-29T02:23:43.427Z,11.50
2022-12-29T02:26:36.787Z,11.60
2022-12-29T02:29:34.698Z,11.50
2022-12-29T02:32:09.005Z,11.60
2022-12-29T02:34:58.706Z,11.50
2022-12-29T02:37:25.674Z,11.50
2022-12-29T02:40:08.874Z,11.50
2022-12-29T02:43:14.693Z,11.50
2022-12-29T02:46:03.687Z,11.50
2022-12-29T02:48:38.355Z,11.40
2022-12-29T02:51:56.754Z,11.50
2022-12-29T02:54:43.178Z,11.40
2022-12-29T02:57:13.802Z,11.40
2022-12-29T02:59:44.124Z,11.40
2022-12-29T03:02:32.145Z,11.40
2022-12-29T03:05:23.619Z,11.40
2022-12-29T03:07:59.183Z,11.30
2022-12-29T03:10:52.361Z,11.30
2022-12-29T03:13:57.274Z,11.20
2022-12-29T03:16:44.681Z,11.20
2022-12-29T03:19:34.008Z,11.10
2022-12-29T03:22:28.595Z,11.00
2022-12-29T03:25:38.002Z,11.00
2022-12-29T03:28:13.412Z,11.00
2022-12-29T03:30:46.613Z,11.00
2022-12-29T03:33:23.115Z,11.00
2022-12-29T03:35:54.255Z,11.00
2022-12-29T03:38:26.878Z,10.90
2022-12-29T03:40:58.595Z,10.90
2022-12-29T03:43:29.348Z,10.90
2022-12-29T03:45:56.693Z,10.90
2022-12-29T03:48:23.746Z,10.90
2022-12-29T03:50:52.676Z,10.90
2022-12-29T03:53:19.682Z,10.80
2022-12-29T03:55:47.713Z,10.80
2022-12-29T03:58:14.714Z,10.80
2022-12-29T04:01:04.690Z,10.80
2022-12-29T04:03:35.169Z,10.70
2022-12-29T04:06:02.376Z,10.80
2022-12-29T04:08:36.422Z,10.80
2022-12-29T04:11:04.472Z,10.70
2022-12-29T04:13:32.232Z,10.70
2022-12-29T04:15:59.631Z,10.70
2022-12-29T04:18:26.755Z,10.70
2022-12-29T04:21:03.708Z,10.70
2022-12-29T04:23:38.262Z,10.70
2022-12-29T04:26:08.721Z,10.70
2022-12-29T04:28:40.210Z,10.60
2022-12-29T04:31:30.253Z,10.50
2022-12-29T04:33:58.318Z,10.40
2022-12-29T04:36:29.869Z,10.30
2022-12-29T04:38:57.543Z,10.30
2022-12-29T04:41:25.138Z,10.20
2022-12-29T04:43:52.373Z,10.10
2022-12-29T04:46:38.291Z,10.10
2022-12-29T04:49:09.997Z,10.10
2022-12-29T04:52:00.550Z,10.10
2022-12-29T04:54:28.306Z,10.00
2022-12-29T04:57:04.329Z,10.00
2022-12-29T04:59:31.415Z,10.00
2022-12-29T05:02:00.174Z,10.10
2022-12-29T05:04:27.407Z,10.10
2022-12-29T05:06:54.576Z,10.10
2022-12-29T05:09:21.652Z,10.10
2022-12-29T05:11:48.797Z,10.20
2022-12-29T05:14:15.950Z,10.20
2022-12-29T05:16:44.058Z,10.20
2022-12-29T05:19:11.205Z,10.20
2022-12-29T05:21:38.523Z,10.20
2022-12-29T05:24:06.021Z,10.20
2022-12-29T05:26:33.150Z,10.10
2022-12-29T05:29:08.965Z,10.20
2022-12-29T05:31:36.742Z,10.20
2022-12-29T05:34:05.426Z,10.20
2022-12-29T05:36:37.491Z,10.20
2022-12-29T05:39:05.209Z,10.20
2022-12-29T05:41:32.853Z,10.20
2022-12-29T05:44:00.690Z,10.10
2022-12-29T05:46:27.824Z,10.10
2022-12-29T05:49:18.725Z,10.20
2022-12-29T05:52:23.984Z,10.20
2022-12-29T05:54:51.013Z,10.10
2022-12-29T05:57:21.462Z,10.10
2022-12-29T05:59:57.209Z,10.10
2022-12-29T06:02:24.417Z,10.20
2022-12-29T06:04:51.646Z,10.20
2022-12-29T06:07:19.157Z,10.20
2022-12-29T06:09:48.073Z,10.20
2022-12-29T06:12:14.971Z,10.20
2022-12-29T06:14:44.924Z,10.20
2022-12-29T06:17:12.259Z,10.20
2022-12-29T06:19:41.704Z,10.20
2022-12-29T06:22:08.783Z,10.20
2022-12-29T06:24:36.717Z,10.30
2022-12-29T06:27:03.900Z,10.20
2022-12-29T06:29:30.965Z,10.20
2022-12-29T06:31:59.399Z,10.30
2022-12-29T06:34:30.994Z,10.20
2022-12-29T06:36:58.075Z,10.10
2022-12-29T06:39:25.279Z,10.30
2022-12-29T06:42:03.970Z,10.30
2022-12-29T06:44:43.969Z,10.30
2022-12-29T06:47:11.084Z,10.30
2022-12-29T06:49:37.948Z,10.30
2022-12-29T06:52:10.803Z,10.20
2022-12-29T06:54:39.759Z,10.10
2022-12-29T06:57:06.671Z,10.10
2022-12-29T06:59:34.465Z,10.20
2022-12-29T07:02:03.248Z,10.30
2022-12-29T07:04:30.454Z,10.20
2022-12-29T07:06:57.496Z,10.30
2022-12-29T07:09:24.503Z,10.30
2022-12-29T07:11:51.605Z,10.30
2022-12-29T07:14:18.592Z,10.40
2022-12-29T07:16:45.663Z,10.30
2022-12-29T07:19:12.798Z,10.30
2022-12-29T07:21:47.461Z,10.30
2022-12-29T07:24:14.640Z,10.20
2022-12-29T07:26:42.804Z,10.10
2022-12-29T07:29:09.810Z,10.10
2022-12-29T07:31:36.921Z,10.10
2022-12-29T07:34:04.002Z,10.20
2022-12-29T07:36:34.650Z,10.20
2022-12-29T07:39:02.621Z,10.10
2022-12-29T07:41:29.534Z,10.10
2022-12-29T07:43:56.568Z,10.20
2022-12-29T07:46:53.718Z,10.20
2022-12-29T07:49:23.931Z,10.10
2022-12-29T07:51:50.871Z,10.10
2022-12-29T07:54:20.917Z,10.10
2022-12-29T07:56:47.868Z,10.20
2022-12-29T07:59:14.830Z,10.20
2022-12-29T08:01:41.979Z,10.10
2022-12-29T08:04:09.271Z,10.10
2022-12-29T08:06:36.306Z,10.10
2022-12-29T08:09:11.328Z,10.00
2022-12-29T08:11:41.946Z,9.90
2022-12-29T08:14:09.019Z,10.00
2022-12-29T08:16:36.328Z,10.00
2022-12-29T08:19:04.983Z,10.00
2022-12-29T08:21:32.703Z,9.90
2022-12-29T08:24:00.217Z,10.00
2022-12-29T08:26:27.416Z,9.90
2022-12-29T08:28:56.723Z,9.90
2022-12-29T08:31:25.029Z,9.90
2022-12-29T08:33:52.371Z,9.90
2022-12-29T08:36:19.590Z,10.00
2022-12-29T08:38:47.169Z,10.10
2022-12-29T08:41:14.135Z,10.10
2022-12-29T08:43:41.104Z,10.10
2022-12-29T08:46:08.203Z,10.20
2022-12-29T08:48:35.289Z,10.30
2022-12-29T08:51:02.259Z,10.30
2022-12-29T08:53:29.322Z,10.30
2022-12-29T08:56:04.098Z,10.30
2022-12-29T08:58:39.163Z,10.30
2022-12-29T09:01:07.933Z,10.30
2022-12-29T09:04:12.820Z,10.30
2022-12-29T09:06:22.715Z,10.40
2022-12-29T09:08:49.786Z,10.40
2022-12-29T09:11:24.052Z,10.30
2022-12-29T09:13:51.619Z,10.20
2022-12-29T09:16:20.050Z,10.10
2022-12-29T09:18:47.221Z,10.10
2022-12-29T09:21:14.444Z,10.00
2022-12-29T09:23:41.802Z,10.00
2022-12-29T09:26:09.644Z,9.80
2022-12-29T09:28:36.723Z,9.80
2022-12-29T09:31:04.258Z,9.70
2022-12-29T09:33:33.536Z,9.60
2022-12-29T09:36:00.786Z,9.60
2022-12-29T09:38:28.472Z,9.50
2022-12-29T09:41:08.274Z,9.40
2022-12-29T09:43:50.389Z,9.40
2022-12-29T09:46:28.476Z,9.30
2022-12-29T09:49:18.687Z,9.30
2022-12-29T09:51:50.474Z,9.20
2022-12-29T09:54:39.775Z,9.20
2022-12-29T09:57:15.993Z,9.20
2022-12-29T09:59:45.145Z,9.20
2022-12-29T10:02:23.973Z,9.20
2022-12-29T10:04:53.046Z,9.10
2022-12-29T10:07:34.492Z,9.10
2022-12-29T10:10:36.759Z,9.20
2022-12-29T10:13:26.340Z,9.20
2022-12-29T10:16:26.435Z,9.10
2022-12-29T10:19:15.002Z,9.20
2022-12-29T10:22:09.025Z,9.20
2022-12-29T10:24:39.401Z,9.20
2022-12-29T10:27:14.588Z,9.20
2022-12-29T10:29:54.663Z,9.20
2022-12-29T10:32:53.203Z,9.20
2022-12-29T10:35:38.681Z,9.20
2022-12-29T10:38:28.196Z,9.30
2022-12-29T10:41:24.493Z,9.30
2022-12-29T10:43:54.407Z,9.30
2022-12-29T10:46:37.807Z,9.40
2022-12-29T10:49:18.039Z,9.40
2022-12-29T10:51:50.961Z,9.40
2022-12-29T10:54:21.522Z,9.50
2022-12-29T10:56:55.959Z,9.60
2022-12-29T10:59:25.805Z,9.60
2022-12-29T11:02:19.681Z,9.60
2022-12-29T11:05:11.976Z,9.70
2022-12-29T11:07:39.175Z,9.70
2022-12-29T11:10:42.143Z,9.80
2022-12-29T11:13:16.528Z,9.70
2022-12-29T11:15:46.138Z,9.70
2022-12-29T11:18:23.950Z,9.60
2022-12-29T11:21:02.356Z,9.70
2022-12-29T11:23:38.064Z,9.70
2022-12-29T11:26:31.788Z,9.70
2022-12-29T11:29:12.451Z,9.80
2022-12-29T11:31:44.598Z,9.90
2022-12-29T11:34:19.328Z,10.00
2022-12-29T11:36:48.385Z,10.10
2022-12-29T11:39:48.373Z,10.00
2022-12-29T11:42:18.058Z,10.00
2022-12-29T11:44:50.468Z,10.00
2022-12-29T11:47:28.971Z,9.90
2022-12-29T11:49:59.885Z,9.90
2022-12-29T11:52:30.346Z,9.90
2022-12-29T11:54:58.220Z,9.90
2022-12-29T11:57:26.217Z,9.90
2022-12-29T11:59:56.448Z,9.90
2022-12-29T12:02:43.105Z,10.00
2022-12-29T12:05:32.526Z,10.00
2022-12-29T12:08:21.179Z,10.00
2022-12-29T12:10:55.662Z,9.90
2022-12-29T12:13:38.321Z,9.80
2022-12-29T12:16:15.458Z,9.90
2022-12-29T12:18:54.818Z,9.90
2022-12-29T12:21:46.113Z,9.90
2022-12-29T12:24:16.302Z,9.90
2022-12-29T12:27:04.576Z,10.00
2022-12-29T12:29:31.549Z,10.00
2022-12-29T12:32:00.750Z,10.10
2022-12-29T12:34:36.816Z,10.10
2022-12-29T12:37:22.228Z,10.10
2022-12-29T12:40:10.460Z,10.10
2022-12-29T12:43:14.387Z,10.10
2022-12-29T12:45:58.233Z,10.20
2022-12-29T12:48:59.075Z,10.20
2022-12-29T12:51:44.047Z,10.20
2022-12-29T12:54:14.073Z,10.20
2022-12-29T12:57:04.258Z,10.20
2022-12-29T12:59:52.082Z,10.20
2022-12-29T13:02:36.025Z,10.20
2022-12-29T13:05:29.954Z,10.10
2022-12-29T13:08:15.680Z,10.00
2022-12-29T13:10:56.375Z,10.00
2022-12-29T13:13:47.453Z,9.90
2022-12-29T13:16:51.421Z,9.70
2022-12-29T13:19:21.318Z,9.40
2022-12-29T13:22:09.978Z,9.30
2022-12-29T13:25:11.268Z,9.40
2022-12-29T13:28:06.065Z,9.30
2022-12-29T13:30:46.974Z,9.30
2022-12-29T13:33:41.407Z,9.30
2022-12-29T13:36:35.169Z,9.30
2022-12-29T13:39:21.295Z,9.30
2022-12-29T13:41:54.065Z,9.30
2022-12-29T13:44:25.664Z,9.20
2022-12-29T13:46:54.215Z,9.20
2022-12-29T13:49:25.410Z,9.20
2022-12-29T13:52:17.743Z,9.20
2022-12-29T13:55:03.485Z,9.30
2022-12-29T13:57:49.407Z,9.30
2022-12-29T14:00:20.314Z,9.30
2022-12-29T14:02:47.477Z,9.40
2022-12-29T14:05:30.718Z,9.50
2022-12-29T14:08:04.111Z,9.50
2022-12-29T14:10:35.007Z,9.50
2022-12-29T14:13:15.027Z,9.50
2022-12-29T14:15:45.032Z,9.50
2022-12-29T14:18:16.679Z,9.50
2022-12-29T14:21:04.034Z,9.50
2022-12-29T14:23:41.563Z,9.50
2022-12-29T14:26:08.479Z,9.50
2022-12-29T14:28:41.507Z,9.50
2022-12-29T14:31:20.648Z,9.50
2022-12-29T14:34:11.766Z,9.50
2022-12-29T14:36:40.599Z,9.50
2022-12-29T14:39:32.207Z,9.50
2022-12-29T14:42:15.039Z,9.50
2022-12-29T14:44:56.480Z,9.40
2022-12-29T14:47:32.414Z,9.40
2022-12-29T14:50:07.808Z,9.30
2022-12-29T14:52:47.635Z,9.30
2022-12-29T14:55:17.350Z,9.20
2022-12-29T14:58:01.521Z,9.20
2022-12-29T15:00:34.058Z,9.20
2022-12-29T15:03:06.744Z,9.20
2022-12-29T15:05:41.783Z,9.20
2022-12-29T15:08:10.113Z,9.20
2022-12-29T15:10:43.795Z,9.20
2022-12-29T15:13:22.839Z,9.20
2022-12-29T15:15:50.201Z,9.20
2022-12-29T15:18:25.443Z,9.10
2022-12-29T15:20:56.751Z,9.10
2022-12-29T15:23:24.640Z,9.10
2022-12-29T15:26:04.586Z,9.10
2022-12-29T15:28:53.075Z,9.10
2022-12-29T15:31:30.122Z,9.10
2022-12-29T15:34:13.191Z,9.00
2022-12-29T15:36:42.537Z,9.00
2022-12-29T15:39:31.052Z,9.00
2022-12-29T15:42:05.300Z,9.00
2022-12-29T15:44:44.216Z,9.00
2022-12-29T15:47:18.843Z,9.00
2022-12-29T15:49:50.340Z,9.00
2022-12-29T15:52:22.339Z,8.90
2022-12-29T15:54:54.531Z,8.90
2022-12-29T15:57:26.893Z,8.90
2022-12-29T15:59:55.084Z,8.80
2022-12-29T16:02:26.397Z,8.80
2022-12-29T16:05:16.707Z,8.80
2022-12-29T16:07:57.034Z,8.80
2022-12-29T16:10:43.498Z,8.80
2022-12-29T16:13:13.197Z,8.70
2022-12-29T16:15:40.319Z,8.70
2022-12-29T16:18:17.329Z,8.70
2022-12-29T16:20:44.455Z,8.70
2022-12-29T16:23:21.940Z,8.70
2022-12-29T16:25:49.156Z,8.70
2022-12-29T16:28:39.865Z,8.70
2022-12-29T16:31:17.237Z,8.70
2022-12-29T16:33:53.994Z,8.70
2022-12-29T16:36:41.520Z,8.60
2022-12-29T16:39:30.146Z,8.60
2022-12-29T16:41:57.656Z,8.60
2022-12-29T16:44:29.833Z,8.60
2022-12-29T16:47:12.055Z,8.60
2022-12-29T16:49:49.842Z,8.60
2022-12-29T16:52:23.573Z,8.60
2022-12-29T16:54:55.577Z,8.60
2022-12-29T16:57:37.462Z,8.60
2022-12-29T17:00:08.959Z,8.60
2022-12-29T17:02:45.627Z,8.50
2022-12-29T17:05:15.206Z,8.60
2022-12-29T17:07:42.168Z,8.50
2022-12-29T17:10:09.451Z,8.50
2022-12-29T17:12:37.926Z,8.50
2022-12-29T17:15:09.251Z,8.50
2022-12-29T17:17:41.333Z,8.50
2022-12-29T17:20:30.367Z,8.40
2022-12-29T17:22:58.707Z,8.50
2022-12-29T17:25:37.526Z,8.40
2022-12-29T17:28:22.386Z,8.40
2022-12-29T17:30:50.267Z,8.40
2022-12-29T17:33:20.151Z,8.30
2022-12-29T17:35:50.532Z,8.30
2022-12-29T17:38:30.136Z,8.30
2022-12-29T17:40:58.168Z,8.20
2022-12-29T17:43:26.567Z,8.20
2022-12-29T17:45:58.410Z,8.20
2022-12-29T17:48:25.828Z,8.20
2022-12-29T17:50:56.625Z,8.20
2022-12-29T17:53:26.887Z,8.10
2022-12-29T17:55:54.150Z,8.10
2022-12-29T17:58:23.764Z,8.10
2022-12-29T18:00:56.266Z,8.00
2022-12-29T18:03:37.979Z,8.00
2022-12-29T18:06:06.639Z,8.00
2022-12-29T18:08:36.765Z,8.00
2022-12-29T18:11:04.247Z,8.00
2022-12-29T18:13:43.937Z,8.00
2022-12-29T18:16:13.597Z,8.00
2022-12-29T18:18:40.728Z,7.90
2022-12-29T18:21:19.992Z,7.90
2022-12-29T18:23:47.993Z,8.00
2022-12-29T18:26:27.325Z,7.90
2022-12-29T18:28:57.410Z,7.90
2022-12-29T18:31:44.146Z,7.90
2022-12-29T18:34:14.693Z,7.90
2022-12-29T18:36:42.371Z,7.90
2022-12-29T18:39:09.324Z,7.90
2022-12-29T18:41:36.318Z,7.90
2022-12-29T18:44:03.407Z,7.90
2022-12-29T18:46:30.531Z,7.90
2022-12-29T18:48:57.547Z,7.90
2022-12-29T18:51:25.634Z,7.90
2022-12-29T18:53:54.461Z,7.90
2022-12-29T18:56:23.821Z,7.90
2022-12-29T18:58:51.799Z,7.90
2022-12-29T19:01:25.817Z,7.90
2022-12-29T19:03:53.147Z,7.90
2022-12-29T19:06:23.587Z,7.90
2022-12-29T19:08:50.800Z,7.90
2022-12-29T19:11:18.023Z,7.90
2022-12-29T19:13:46.562Z,7.80
2022-12-29T19:16:19.663Z,7.90
2022-12-29T19:18:58.280Z,7.90
2022-12-29T19:21:34.121Z,7.80
2022-12-29T19:24:01.083Z,7.90
2022-12-29T19:26:31.252Z,7.90
2022-12-29T19:28:59.768Z,7.90
2022-12-29T19:31:26.925Z,7.90
2022-12-29T19:33:54.351Z,7.80
2022-12-29T19:36:22.165Z,7.80
2022-12-29T19:38:49.567Z,7.80
2022-12-29T19:41:16.721Z,7.90
2022-12-29T19:43:43.768Z,7.90
2022-12-29T19:46:15.419Z,7.80
2022-12-29T19:48:42.665Z,7.80
2022-12-29T19:51:15.538Z,7.80
2022-12-29T19:53:42.848Z,7.80
2022-12-29T19:56:10.226Z,7.80
2022-12-29T19:58:43.842Z,7.80
2022-12-29T20:01:17.481Z,7.80
2022-12-29T20:03:46.049Z,7.70
2022-12-29T20:06:14.240Z,7.70
2022-12-29T20:08:42.732Z,7.70
2022-12-29T20:11:19.312Z,7.70
2022-12-29T20:13:48.735Z,7.70
2022-12-29T20:16:19.076Z,7.70
2022-12-29T20:18:47.353Z,7.80
2022-12-29T20:21:20.974Z,7.80
2022-12-29T20:23:50.900Z,7.70
2022-12-29T20:26:30.592Z,7.60
2022-12-29T20:28:59.358Z,7.60
2022-12-29T20:31:37.422Z,7.60
2022-12-29T20:34:09.488Z,7.50
2022-12-29T20:36:40.700Z,7.50
2022-12-29T20:39:10.545Z,7.50
2022-12-29T20:41:37.856Z,7.50
2022-12-29T20:44:05.568Z,7.50
2022-12-29T20:46:39.447Z,7.50
2022-12-29T20:49:12.018Z,7.50
2022-12-29T20:54:35.513Z,7.50
2022-12-29T20:57:06.177Z,7.50
2022-12-29T20:59:33.231Z,7.50
2022-12-29T21:02:00.691Z,7.50
2022-12-29T21:04:38.426Z,7.50
2022-12-29T21:07:19.923Z,7.50
2022-12-29T21:09:47.604Z,7.40
2022-12-29T21:12:15.077Z,7.40
2022-12-29T21:14:45.618Z,7.40
2022-12-29T21:17:13.259Z,7.40
2022-12-29T21:19:40.574Z,7.40
2022-12-29T21:22:07.753Z,7.40
2022-12-29T21:24:35.452Z,7.40
2022-12-29T21:27:02.803Z,7.40
2022-12-29T21:29:30.854Z,7.40
2022-12-29T21:32:06.411Z,7.40
2022-12-29T21:34:34.904Z,7.30
2022-12-29T21:37:02.113Z,7.30
2022-12-29T21:39:29.085Z,7.30
2022-12-29T21:42:00.447Z,7.30
2022-12-29T21:44:46.499Z,7.30
2022-12-29T21:47:13.722Z,7.30
2022-12-29T21:49:41.051Z,7.20
2022-12-29T21:52:08.069Z,7.20
2022-12-29T21:54:53.591Z,7.20
2022-12-29T21:57:41.056Z,7.30
2022-12-29T22:00:28.961Z,7.30
2022-12-29T22:03:22.528Z,7.20
2022-12-29T22:06:10.766Z,7.20
2022-12-29T22:08:57.588Z,7.20
2022-12-29T22:11:43.115Z,7.20
2022-12-29T22:14:10.272Z,7.20
2022-12-29T22:16:37.503Z,7.20
2022-12-29T22:19:04.758Z,7.20
2022-12-29T22:21:32.067Z,7.20
2022-12-29T22:24:00.639Z,7.10
2022-12-29T22:26:27.655Z,7.10
2022-12-29T22:28:54.980Z,7.20
2022-12-29T22:31:29.617Z,7.20
2022-12-29T22:33:58.074Z,7.10
2022-12-29T22:36:26.368Z,7.10
2022-12-29T22:38:55.004Z,7.10
2022-12-29T22:41:22.391Z,7.10
2022-12-29T22:43:49.290Z,7.10
2022-12-29T22:46:16.307Z,7.10
2022-12-29T22:48:43.418Z,7.10
2022-12-29T22:51:10.489Z,7.10
2022-12-29T22:53:37.434Z,7.10
2022-12-29T22:56:12.239Z,7.00
2022-12-29T22:58:44.008Z,7.00
2022-12-29T23:01:12.653Z,7.00
2022-12-29T23:03:40.698Z,7.00
2022-12-29T23:06:12.859Z,7.00
2022-12-29T23:08:40.175Z,7.00
2022-12-29T23:11:09.681Z,6.90
2022-12-29T23:13:40.457Z,7.00
2022-12-29T23:16:07.578Z,7.00
2022-12-29T23:18:34.629Z,7.00
2022-12-29T23:21:01.625Z,7.00
2022-12-29T23:23:49.596Z,7.00
2022-12-29T23:26:23.030Z,7.00
2022-12-29T23:28:53.431Z,6.90
2022-12-29T23:31:24.553Z,6.90
2022-12-29T23:33:52.079Z,7.00
2022-12-29T23:36:19.671Z,6.90
2022-12-29T23:38:46.738Z,6.90
2022-12-29T23:41:14.071Z,6.90
2022-12-29T23:43:41.011Z,6.90
2022-12-29T23:46:28.582Z,6.90
2022-12-29T23:48:56.216Z,6.80
2022-12-29T23:51:23.298Z,6.80
2022-12-29T23:53:50.375Z,6.70
2022-12-29T23:56:20.640Z,6.80
2022-12-29T23:58:47.811Z,6.80
